createdAt,value
2018-02-12T00:00:00.094Z,89.20
2018-02-12T00:02:27.628Z,89.50
2018-02-12T00:04:55.144Z,89.30
2018-02-12T00:07:23.430Z,89.70
2018-02-12T00:09:51.708Z,89.80
2018-02-12T00:12:19.997Z,89.90
2018-02-12T00:14:49.048Z,89.90
2018-02-12T00:17:16.737Z,90.50
2018-02-12T00:19:45.024Z,90.20
2018-02-12T00:22:13.295Z,90.20
2018-02-12T00:24:41.561Z,90.10
2018-02-12T00:27:09.823Z,90.00
2018-02-12T00:29:37.339Z,90.00
2018-02-12T00:32:04.843Z,89.70
2018-02-12T00:34:32.383Z,89.80
2018-02-12T00:36:59.883Z,89.60
2018-02-12T00:39:28.164Z,89.80
2018-02-12T00:41:55.692Z,89.80
2018-02-12T00:44:23.205Z,90.00
2018-02-12T00:46:51.534Z,90.10
2018-02-12T00:49:19.977Z,90.20
2018-02-12T00:51:48.265Z,90.60
2018-02-12T00:54:16.616Z,90.80
2018-02-12T00:56:45.872Z,91.10
2018-02-12T00:59:14.031Z,91.10
2018-02-12T01:01:42.706Z,91.20
2018-02-12T01:04:11.276Z,90.90
2018-02-12T01:06:38.775Z,90.80
2018-02-12T01:09:07.058Z,90.80
2018-02-12T01:11:35.317Z,90.70
2018-02-12T01:14:02.838Z,90.70
2018-02-12T01:16:30.385Z,90.50
2018-02-12T01:18:57.901Z,90.50
2018-02-12T01:21:26.175Z,90.60
2018-02-12T01:23:54.477Z,90.70
2018-02-12T01:26:21.963Z,90.70
2018-02-12T01:28:49.457Z,90.80
2018-02-12T01:31:16.989Z,91.10
2018-02-12T01:33:44.500Z,91.30
2018-02-12T01:36:12.776Z,91.90
2018-02-12T01:38:41.033Z,91.90
2018-02-12T01:41:08.555Z,91.90
2018-02-12T01:43:36.072Z,92.10
2018-02-12T01:46:04.354Z,92.20
2018-02-12T01:48:31.850Z,92.20
2018-02-12T01:50:59.360Z,92.20
2018-02-12T01:53:27.631Z,92.70
2018-02-12T01:55:55.893Z,92.90
2018-02-12T01:58:23.414Z,92.90
2018-02-12T02:00:50.901Z,92.90
2018-02-12T02:03:18.408Z,92.90
2018-02-12T02:05:45.910Z,92.70
2018-02-12T02:08:13.408Z,92.70
2018-02-12T02:10:41.660Z,92.60
2018-02-12T02:13:09.187Z,92.60
2018-02-12T02:15:36.689Z,92.50
2018-02-12T02:18:04.958Z,92.30
2018-02-12T02:20:32.475Z,92.30
2018-02-12T02:22:59.983Z,92.00
2018-02-12T02:25:28.256Z,91.50
2018-02-12T02:27:56.536Z,91.50
2018-02-12T02:30:24.823Z,91.50
2018-02-12T02:32:53.076Z,91.20
2018-02-12T02:35:20.594Z,91.20
2018-02-12T02:37:48.089Z,91.20
2018-02-12T02:40:15.614Z,91.10
2018-02-12T02:42:43.112Z,91.20
2018-02-12T02:45:10.620Z,91.20
2018-02-12T02:47:38.151Z,91.40
2018-02-12T02:50:06.418Z,91.70
2018-02-12T02:52:34.687Z,91.70
2018-02-12T02:55:02.950Z,91.80
2018-02-12T02:57:30.456Z,91.50
2018-02-12T02:59:57.958Z,91.40
2018-02-12T03:02:25.495Z,91.60
2018-02-12T03:04:53.006Z,91.70
2018-02-12T03:07:21.271Z,91.80
2018-02-12T03:09:49.543Z,91.80
2018-02-12T03:12:17.028Z,91.70
2018-02-12T03:14:44.555Z,91.60
2018-02-12T03:17:12.066Z,91.50
2018-02-12T03:19:39.582Z,91.10
2018-02-12T03:22:07.855Z,91.00
2018-02-12T03:24:36.147Z,91.00
2018-02-12T03:27:04.414Z,90.90
2018-02-12T03:29:32.689Z,91.00
2018-02-12T03:32:00.940Z,91.20
2018-02-12T03:34:28.441Z,91.20
2018-02-12T03:36:55.962Z,91.40
2018-02-12T03:39:23.470Z,91.60
2018-02-12T03:41:51.010Z,91.80
2018-02-12T03:44:19.273Z,91.90
2018-02-12T03:46:47.549Z,92.00
2018-02-12T03:49:15.819Z,92.10
2018-02-12T03:51:43.322Z,92.10
2018-02-12T03:54:10.817Z,91.80
2018-02-12T03:56:38.314Z,91.60
2018-02-12T03:59:06.608Z,90.30
2018-02-12T04:01:34.109Z,90.30
2018-02-12T04:04:01.622Z,90.20
2018-02-12T04:06:29.134Z,90.00
2018-02-12T04:08:56.650Z,89.90
2018-02-12T04:11:24.211Z,90.00
2018-02-12T04:13:51.726Z,90.30
2018-02-12T04:16:19.984Z,89.90
2018-02-12T04:18:47.519Z,89.80
2018-02-12T04:21:15.015Z,89.90
2018-02-12T04:23:42.504Z,89.80
2018-02-12T04:26:10.010Z,90.20
2018-02-12T04:28:37.516Z,90.60
2018-02-12T04:31:05.020Z,91.00
2018-02-12T04:33:32.513Z,91.10
2018-02-12T04:36:00.808Z,91.30
2018-02-12T04:38:28.324Z,91.30
2018-02-12T04:40:55.864Z,91.20
2018-02-12T04:43:23.375Z,91.30
2018-02-12T04:45:51.657Z,91.40
2018-02-12T04:48:19.184Z,91.40
2018-02-12T04:50:46.693Z,91.70
2018-02-12T04:53:14.218Z,91.90
2018-02-12T04:55:42.481Z,92.10
2018-02-12T04:58:09.998Z,92.10
2018-02-12T05:00:37.491Z,92.40
2018-02-12T05:03:05.009Z,92.50
2018-02-12T05:05:32.496Z,92.50
2018-02-12T05:08:00.088Z,92.50
2018-02-12T05:10:28.350Z,92.90
2018-02-12T05:12:55.859Z,92.90
2018-02-12T05:15:23.387Z,92.90
2018-02-12T05:17:51.663Z,93.20
2018-02-12T05:20:19.180Z,93.20
2018-02-12T05:22:46.682Z,93.30
2018-02-12T05:25:14.971Z,93.10
2018-02-12T05:27:42.470Z,93.10
2018-02-12T05:30:10.760Z,92.50
2018-02-12T05:32:38.263Z,92.50
2018-02-12T05:35:05.758Z,92.00
2018-02-12T05:37:33.273Z,91.50
2018-02-12T05:40:00.784Z,91.10
2018-02-12T05:42:28.296Z,91.10
2018-02-12T05:44:55.794Z,91.20
2018-02-12T05:47:23.314Z,91.40
2018-02-12T05:49:50.823Z,91.30
2018-02-12T05:52:18.355Z,91.60
2018-02-12T05:54:45.868Z,91.80
2018-02-12T05:57:14.148Z,91.90
2018-02-12T05:59:42.440Z,91.90
2018-02-12T06:02:09.930Z,91.90
2018-02-12T06:04:37.438Z,91.90
2018-02-12T06:07:05.701Z,91.70
2018-02-12T06:09:33.218Z,91.60
2018-02-12T06:12:00.719Z,91.30
2018-02-12T06:14:29.036Z,91.00
2018-02-12T06:16:56.529Z,91.00
2018-02-12T06:19:24.056Z,90.80
2018-02-12T06:21:51.548Z,91.00
2018-02-12T06:24:19.046Z,90.80
2018-02-12T06:26:47.336Z,91.00
2018-02-12T06:29:14.855Z,91.00
2018-02-12T06:31:42.370Z,91.00
2018-02-12T06:34:09.874Z,91.00
2018-02-12T06:36:37.400Z,90.90
2018-02-12T06:39:04.923Z,90.90
2018-02-12T06:41:32.438Z,91.10
2018-02-12T06:43:59.948Z,91.10
2018-02-12T06:46:27.476Z,91.00
2018-02-12T06:48:55.760Z,90.70
2018-02-12T06:51:24.017Z,90.70
2018-02-12T06:53:51.530Z,90.70
2018-02-12T06:56:19.036Z,90.90
2018-02-12T06:58:46.557Z,91.20
2018-02-12T07:01:14.058Z,91.30
2018-02-12T07:03:41.578Z,91.00
2018-02-12T07:06:09.075Z,90.70
2018-02-12T07:08:36.598Z,90.50
2018-02-12T07:11:04.099Z,90.20
2018-02-12T07:13:32.371Z,89.90
2018-02-12T07:16:00.666Z,90.10
2018-02-12T07:18:28.944Z,90.20
2018-02-12T07:20:57.217Z,90.60
2018-02-12T07:23:25.487Z,90.60
2018-02-12T07:25:53.779Z,90.30
2018-02-12T07:28:21.269Z,90.30
2018-02-12T07:30:48.795Z,90.50
2018-02-12T07:33:16.307Z,90.50
2018-02-12T07:35:43.843Z,90.50
2018-02-12T07:38:11.333Z,90.50
2018-02-12T07:40:38.820Z,90.10
2018-02-12T07:43:07.106Z,89.60
2018-02-12T07:45:34.605Z,89.60
2018-02-12T07:48:02.121Z,89.10
2018-02-12T07:50:29.621Z,88.60
2018-02-12T07:52:57.148Z,88.80
2018-02-12T07:55:24.661Z,88.80
2018-02-12T07:57:52.172Z,88.80
2018-02-12T08:00:19.665Z,88.70
2018-02-12T08:02:47.162Z,89.30
2018-02-12T08:05:15.445Z,88.70
2018-02-12T08:07:42.950Z,88.70
2018-02-12T08:10:10.462Z,88.80
2018-02-12T08:12:37.962Z,89.10
2018-02-12T08:15:05.496Z,88.40
2018-02-12T08:17:32.984Z,88.70
2018-02-12T08:20:00.506Z,89.00
2018-02-12T08:22:28.017Z,88.50
2018-02-12T08:24:55.534Z,89.40
2018-02-12T08:27:23.020Z,89.00
2018-02-12T08:29:50.517Z,88.20
2018-02-12T08:32:18.802Z,88.20
2018-02-12T08:34:46.303Z,88.10
2018-02-12T08:37:13.827Z,85.70
2018-02-12T08:39:41.344Z,85.90
2018-02-12T08:42:08.844Z,85.80
2018-02-12T08:44:36.352Z,85.10
2018-02-12T08:47:03.871Z,83.70
2018-02-12T08:49:31.360Z,83.90
2018-02-12T08:51:58.857Z,84.60
2018-02-12T08:54:27.124Z,83.50
2018-02-12T08:56:55.427Z,85.00
2018-02-12T08:59:23.387Z,84.40
2018-02-12T09:01:51.654Z,85.50
2018-02-12T09:04:20.095Z,85.20
2018-02-12T09:06:47.612Z,85.20
2018-02-12T09:09:15.126Z,85.00
2018-02-12T09:11:42.625Z,85.40
2018-02-12T09:14:10.150Z,85.10
2018-02-12T09:16:37.653Z,84.90
2018-02-12T09:19:05.164Z,84.80
2018-02-12T09:21:32.691Z,83.40
2018-02-12T09:24:00.194Z,83.40
2018-02-12T09:26:28.482Z,83.30
2018-02-12T09:28:56.750Z,83.40
2018-02-12T09:31:25.030Z,83.50
2018-02-12T09:33:53.294Z,83.80
2018-02-12T09:36:20.848Z,83.80
2018-02-12T09:38:48.325Z,84.40
2018-02-12T09:41:16.575Z,84.20
2018-02-12T09:43:44.090Z,84.10
2018-02-12T09:46:11.594Z,83.20
2018-02-12T09:48:39.869Z,82.80
2018-02-12T09:51:07.365Z,82.80
2018-02-12T09:53:34.867Z,82.10
2018-02-12T09:56:02.374Z,81.20
2018-02-12T09:58:30.653Z,81.40
2018-02-12T10:00:58.932Z,81.10
2018-02-12T10:03:26.457Z,81.10
2018-02-12T10:05:53.950Z,80.00
2018-02-12T10:08:21.450Z,80.30
2018-02-12T10:10:49.098Z,79.40
2018-02-12T10:13:16.604Z,78.70
2018-02-12T10:15:44.880Z,80.50
2018-02-12T10:18:12.382Z,80.20
2018-02-12T10:20:39.897Z,80.30
2018-02-12T10:23:07.404Z,80.50
2018-02-12T10:25:34.924Z,80.10
2018-02-12T10:28:03.190Z,79.20
2018-02-12T10:30:31.458Z,79.20
2018-02-12T10:32:58.978Z,79.30
2018-02-12T10:35:26.473Z,78.70
2018-02-12T10:37:53.980Z,81.00
2018-02-12T10:40:21.487Z,80.60
2018-02-12T10:42:48.992Z,79.90
2018-02-12T10:45:16.493Z,79.50
2018-02-12T10:47:44.000Z,78.80
2018-02-12T10:50:11.503Z,78.30
2018-02-12T10:52:39.030Z,78.50
2018-02-12T10:55:06.588Z,77.80
2018-02-12T10:57:34.088Z,77.90
2018-02-12T11:00:01.611Z,77.60
2018-02-12T11:02:29.110Z,78.90
2018-02-12T11:04:56.623Z,78.20
2018-02-12T11:07:24.127Z,77.80
2018-02-12T11:09:51.655Z,77.70
2018-02-12T11:12:19.160Z,77.80
2018-02-12T11:14:47.447Z,79.70
2018-02-12T11:17:15.715Z,79.90
2018-02-12T11:19:43.995Z,80.00
2018-02-12T11:22:12.279Z,78.90
2018-02-12T11:24:40.536Z,79.70
2018-02-12T11:27:08.064Z,79.70
2018-02-12T11:29:35.584Z,79.20
2018-02-12T11:32:03.103Z,80.30
2018-02-12T11:34:30.592Z,79.60
2018-02-12T11:36:58.870Z,77.40
2018-02-12T11:39:26.379Z,77.30
2018-02-12T11:41:53.910Z,77.40
2018-02-12T11:44:21.407Z,76.50
2018-02-12T11:46:48.900Z,76.50
2018-02-12T11:49:17.192Z,75.60
2018-02-12T11:51:44.703Z,75.50
2018-02-12T11:54:12.232Z,74.40
2018-02-12T11:56:39.724Z,75.30
2018-02-12T11:59:07.235Z,74.80
2018-02-12T12:01:34.741Z,74.10
2018-02-12T12:04:02.262Z,72.90
2018-02-12T12:06:29.767Z,76.40
2018-02-12T12:08:58.060Z,76.80
2018-02-12T12:11:26.360Z,76.60
2018-02-12T12:13:53.880Z,76.60
2018-02-12T12:16:22.184Z,76.90
2018-02-12T12:18:49.676Z,76.90
2018-02-12T12:21:17.180Z,77.40
2018-02-12T12:23:45.446Z,76.50
2018-02-12T12:26:12.961Z,76.50
2018-02-12T12:28:40.464Z,76.60
2018-02-12T12:31:07.966Z,75.90
2018-02-12T12:33:35.483Z,75.60
2018-02-12T12:36:03.768Z,74.90
2018-02-12T12:38:31.314Z,74.90
2018-02-12T12:40:58.828Z,74.80
2018-02-12T12:43:26.356Z,77.00
2018-02-12T12:45:53.858Z,75.90
2018-02-12T12:48:21.379Z,74.70
2018-02-12T12:50:48.879Z,74.70
2018-02-12T12:53:16.506Z,74.50
2018-02-12T12:55:43.992Z,74.90
2018-02-12T12:58:11.486Z,74.60
2018-02-12T13:00:39.788Z,73.40
2018-02-12T13:03:07.286Z,73.40
2018-02-12T13:05:34.800Z,73.40
2018-02-12T13:08:03.067Z,73.40
2018-02-12T13:10:31.376Z,74.10
2018-02-12T13:12:58.878Z,74.10
2018-02-12T13:15:26.386Z,74.50
2018-02-12T13:17:53.873Z,74.00
2018-02-12T13:20:21.365Z,72.70
2018-02-12T13:22:49.664Z,72.50
2018-02-12T13:25:17.188Z,72.50
2018-02-12T13:27:44.701Z,72.70
2018-02-12T13:30:12.216Z,72.60
2018-02-12T13:32:40.493Z,72.30
2018-02-12T13:35:08.762Z,72.00
2018-02-12T13:37:36.293Z,72.00
2018-02-12T13:40:03.807Z,72.50
2018-02-12T13:42:31.340Z,71.60
2018-02-12T13:44:58.846Z,71.70
2018-02-12T13:47:26.346Z,72.00
2018-02-12T13:49:53.894Z,71.80
2018-02-12T13:52:21.370Z,71.70
2018-02-12T13:54:48.891Z,71.50
2018-02-12T13:57:16.390Z,71.50
2018-02-12T13:59:43.906Z,71.80
2018-02-12T14:02:11.400Z,72.00
2018-02-12T14:04:38.928Z,71.80
2018-02-12T14:07:06.434Z,72.10
2018-02-12T14:09:34.744Z,70.50
2018-02-12T14:12:02.258Z,70.50
2018-02-12T14:14:29.748Z,70.90
2018-02-12T14:16:57.274Z,70.80
2018-02-12T14:19:24.774Z,71.10
2018-02-12T14:21:52.286Z,71.60
2018-02-12T14:24:19.786Z,71.90
2018-02-12T14:26:47.318Z,71.80
2018-02-12T14:29:15.600Z,71.20
2018-02-12T14:31:43.886Z,70.40
2018-02-12T14:34:11.377Z,70.40
2018-02-12T14:36:38.868Z,71.70
2018-02-12T14:39:06.385Z,72.20
2018-02-12T14:41:33.872Z,73.30
2018-02-12T14:44:02.140Z,72.60
2018-02-12T14:46:29.628Z,73.30
2018-02-12T14:48:57.155Z,72.40
2018-02-12T14:51:24.671Z,73.00
2018-02-12T14:53:52.198Z,72.70
2018-02-12T14:56:19.697Z,73.70
2018-02-12T14:58:47.203Z,75.20
2018-02-12T15:01:14.717Z,76.50
2018-02-12T15:03:42.204Z,76.60
2018-02-12T15:06:09.727Z,76.80
2018-02-12T15:08:37.217Z,76.70
2018-02-12T15:11:04.733Z,76.80
2018-02-12T15:13:33.003Z,77.80
2018-02-12T15:16:01.276Z,76.90
2018-02-12T15:18:29.552Z,77.20
2018-02-12T15:20:57.855Z,76.80
2018-02-12T15:23:25.358Z,76.80
2018-02-12T15:25:52.878Z,77.50
2018-02-12T15:28:20.389Z,77.00
2018-02-12T15:30:47.894Z,77.90
2018-02-12T15:33:15.405Z,76.90
2018-02-12T15:35:43.771Z,78.60
2018-02-12T15:38:11.291Z,78.10
2018-02-12T15:40:38.789Z,78.30
2018-02-12T15:43:06.309Z,79.20
2018-02-12T15:45:33.816Z,79.30
2018-02-12T15:48:01.327Z,80.10
2018-02-12T15:50:28.845Z,80.20
2018-02-12T15:52:57.120Z,80.90
2018-02-12T15:55:25.415Z,81.60
2018-02-12T15:57:53.430Z,81.60
2018-02-12T16:00:21.036Z,82.10
2018-02-12T16:02:49.292Z,82.10
2018-02-12T16:05:16.826Z,82.10
2018-02-12T16:07:44.313Z,82.00
2018-02-12T16:10:11.820Z,81.30
2018-02-12T16:12:39.317Z,81.90
2018-02-12T16:15:06.831Z,82.40
2018-02-12T16:17:34.364Z,83.20
2018-02-12T16:20:02.642Z,84.00
2018-02-12T16:22:30.925Z,83.60
2018-02-12T16:24:58.431Z,83.60
2018-02-12T16:27:25.960Z,84.00
2018-02-12T16:29:53.466Z,83.40
2018-02-12T16:32:21.008Z,82.60
2018-02-12T16:34:48.532Z,82.80
2018-02-12T16:37:16.038Z,81.40
2018-02-12T16:39:43.557Z,80.40
2018-02-12T16:42:11.049Z,80.10
2018-02-12T16:44:38.568Z,80.40
2018-02-12T16:47:06.052Z,81.00
2018-02-12T16:49:33.557Z,80.10
2018-02-12T16:52:01.827Z,80.50
2018-02-12T16:54:30.103Z,80.50
2018-02-12T16:56:58.370Z,81.20
2018-02-12T16:59:25.897Z,81.20
2018-02-12T17:01:53.404Z,80.50
2018-02-12T17:04:21.692Z,80.70
2018-02-12T17:06:49.200Z,80.70
2018-02-12T17:09:16.715Z,80.60
2018-02-12T17:11:44.234Z,80.00
2018-02-12T17:14:12.081Z,79.60
2018-02-12T17:16:40.416Z,80.10
2018-02-12T17:19:07.926Z,80.10
2018-02-12T17:21:35.446Z,80.20
2018-02-12T17:24:02.937Z,79.90
2018-02-12T17:26:30.442Z,79.80
2018-02-12T17:28:57.966Z,80.10
2018-02-12T17:31:25.478Z,79.30
2018-02-12T17:33:52.988Z,79.30
2018-02-12T17:36:20.512Z,79.30
2018-02-12T17:38:48.037Z,79.00
2018-02-12T17:41:15.533Z,78.80
2018-02-12T17:43:43.062Z,79.20
2018-02-12T17:46:10.567Z,79.90
2018-02-12T17:48:38.092Z,80.10
2018-02-12T17:51:05.611Z,80.90
2018-02-12T17:53:33.891Z,80.70
2018-02-12T17:56:02.169Z,81.10
2018-02-12T17:58:30.431Z,81.10
2018-02-12T18:00:57.944Z,81.10
2018-02-12T18:03:25.470Z,81.20
2018-02-12T18:05:53.751Z,81.30
2018-02-12T18:08:21.249Z,81.30
2018-02-12T18:10:48.822Z,81.20
2018-02-12T18:13:16.312Z,82.20
2018-02-12T18:15:44.582Z,84.40
2018-02-12T18:18:12.856Z,84.80
2018-02-12T18:20:41.141Z,85.10
2018-02-12T18:23:09.439Z,84.80
2018-02-12T18:25:36.957Z,84.80
2018-02-12T18:28:04.481Z,83.90
2018-02-12T18:30:32.031Z,83.10
2018-02-12T18:32:59.548Z,83.40
2018-02-12T18:35:27.818Z,84.10
2018-02-12T18:37:55.314Z,84.10
2018-02-12T18:40:22.820Z,83.80
2018-02-12T18:42:50.311Z,84.70
2018-02-12T18:45:18.585Z,85.80
2018-02-12T18:47:46.840Z,85.50
2018-02-12T18:50:14.370Z,85.40
2018-02-12T18:52:41.888Z,85.60
2018-02-12T18:55:09.421Z,85.40
2018-02-12T18:57:38.539Z,85.00
2018-02-12T19:00:06.054Z,85.00
2018-02-12T19:02:33.558Z,85.40
2018-02-12T19:05:01.085Z,86.10
2018-02-12T19:07:28.593Z,85.60
2018-02-12T19:09:56.097Z,86.20
2018-02-12T19:12:23.631Z,86.20
2018-02-12T19:14:51.152Z,86.60
2018-02-12T19:17:18.674Z,87.30
2018-02-12T19:19:46.174Z,88.00
2018-02-12T19:22:13.702Z,87.70
2018-02-12T19:24:42.003Z,86.80
2018-02-12T19:27:09.517Z,86.70
2018-02-12T19:29:37.055Z,86.30
2018-02-12T19:32:04.547Z,85.90
2018-02-12T19:34:32.065Z,86.60
2018-02-12T19:36:59.588Z,86.60
2018-02-12T19:39:27.860Z,87.00
2018-02-12T19:41:56.140Z,87.40
2018-02-12T19:44:24.440Z,87.00
2018-02-12T19:46:51.936Z,86.90
2018-02-12T19:49:19.423Z,86.80
2018-02-12T19:51:47.710Z,87.70
2018-02-12T19:54:15.981Z,88.40
2018-02-12T19:56:44.252Z,88.40
2018-02-12T19:59:12.522Z,88.40
2018-02-12T20:01:40.810Z,89.30
2018-02-12T20:04:10.129Z,88.20
2018-02-12T20:06:37.711Z,88.20
2018-02-12T20:09:05.200Z,88.30
2018-02-12T20:11:32.712Z,88.50
2018-02-12T20:14:00.235Z,88.40
2018-02-12T20:16:28.502Z,87.70
2018-02-12T20:18:57.265Z,87.70
2018-02-12T20:21:24.780Z,87.50
2018-02-12T20:23:52.306Z,87.60
2018-02-12T20:26:19.817Z,87.80
2018-02-12T20:28:47.355Z,86.80
2018-02-12T20:31:14.882Z,86.80
2018-02-12T20:33:42.420Z,86.20
2018-02-12T20:36:09.916Z,86.00
2018-02-12T20:38:38.210Z,84.90
2018-02-12T20:41:05.713Z,84.90
2018-02-12T20:43:33.214Z,85.40
2018-02-12T20:46:01.485Z,84.70
2018-02-12T20:48:29.785Z,84.00
2018-02-12T20:50:57.296Z,84.00
2018-02-12T20:53:24.817Z,83.70
2018-02-12T20:55:52.384Z,83.80
2018-02-12T20:58:19.876Z,84.10
2018-02-12T21:00:47.398Z,83.60
2018-02-12T21:03:14.902Z,84.00
2018-02-12T21:05:43.165Z,85.30
2018-02-12T21:08:10.690Z,85.30
2018-02-12T21:10:38.208Z,86.00
2018-02-12T21:13:06.498Z,86.20
2018-02-12T21:15:34.011Z,86.10
2018-02-12T21:18:01.540Z,85.40
2018-02-12T21:20:31.011Z,85.40
2018-02-12T21:22:59.284Z,86.00
2018-02-12T21:25:27.568Z,86.80
2018-02-12T21:27:55.088Z,86.80
2018-02-12T21:30:22.604Z,87.40
2018-02-12T21:32:50.110Z,87.40
2018-02-12T21:35:17.625Z,87.00
2018-02-12T21:37:45.130Z,86.60
2018-02-12T21:40:12.650Z,86.80
2018-02-12T21:42:40.154Z,87.70
2018-02-12T21:45:07.671Z,87.90
2018-02-12T21:47:35.170Z,88.50
2018-02-12T21:50:02.688Z,88.60
2018-02-12T21:52:30.204Z,88.00
2018-02-12T21:54:58.488Z,87.20
2018-02-12T21:57:26.011Z,87.20
2018-02-12T21:59:53.521Z,86.70
2018-02-12T22:02:21.050Z,87.10
2018-02-12T22:04:49.322Z,88.20
2018-02-12T22:07:17.601Z,88.60
2018-02-12T22:09:45.878Z,88.90
2018-02-12T22:12:14.168Z,89.40
2018-02-12T22:14:41.673Z,89.30
2018-02-12T22:17:09.173Z,89.30
2018-02-12T22:19:37.454Z,89.30
2018-02-12T22:22:05.732Z,89.40
2018-02-12T22:24:34.028Z,89.40
2018-02-12T22:27:01.532Z,89.40
2018-02-12T22:29:29.054Z,89.90
2018-02-12T22:31:56.558Z,89.90
2018-02-12T22:34:24.093Z,90.10
2018-02-12T22:36:51.598Z,90.10
2018-02-12T22:39:19.885Z,90.10
2018-02-12T22:41:47.394Z,90.10
2018-02-12T22:44:14.884Z,90.30
2018-02-12T22:46:43.165Z,90.40
2018-02-12T22:49:11.439Z,90.40
2018-02-12T22:51:39.736Z,90.30
2018-02-12T22:54:07.228Z,90.30
2018-02-12T22:56:34.746Z,90.40
2018-02-12T22:59:02.261Z,90.40
2018-02-12T23:01:29.772Z,90.40
2018-02-12T23:03:57.278Z,90.20
2018-02-12T23:06:24.772Z,90.00
2018-02-12T23:08:53.068Z,90.70
2018-02-12T23:11:20.584Z,90.70
2018-02-12T23:13:48.116Z,90.70
2018-02-12T23:16:15.624Z,90.80
2018-02-12T23:18:43.907Z,90.60
2018-02-12T23:21:11.431Z,90.60
2018-02-12T23:23:38.950Z,90.50
2018-02-12T23:26:06.463Z,90.50
2018-02-12T23:28:34.764Z,90.50
2018-02-12T23:31:02.278Z,90.50
2018-02-12T23:33:29.773Z,90.50
2018-02-12T23:35:58.055Z,90.40
2018-02-12T23:38:25.557Z,90.40
2018-02-12T23:40:53.104Z,90.30
2018-02-12T23:43:20.606Z,90.30
2018-02-12T23:45:48.889Z,90.20
2018-02-12T23:48:17.172Z,90.00
2018-02-12T23:50:45.444Z,89.40
2018-02-12T23:53:13.701Z,89.00
2018-02-12T23:55:41.216Z,89.00
2018-02-12T23:58:08.750Z,88.90
